createdAt,value
2019-03-30T00:01:44.958Z,101979.52
2019-03-30T00:04:15.463Z,101972.73
2019-03-30T00:06:46.210Z,101975.69
2019-03-30T00:09:16.978Z,101970.06
2019-03-30T00:11:47.676Z,101977.16
2019-03-30T00:14:18.121Z,101975.55
2019-03-30T00:16:48.512Z,101968.86
2019-03-30T00:19:18.958Z,101968.88
2019-03-30T00:21:49.344Z,101973.58
2019-03-30T00:24:19.827Z,101966.70
2019-03-30T00:26:50.419Z,101965.10
2019-03-30T00:29:20.863Z,101969.62
2019-03-30T00:31:51.611Z,101957.73
2019-03-30T00:34:22.000Z,101956.09
2019-03-30T00:36:52.461Z,101956.39
2019-03-30T00:39:23.009Z,101952.61
2019-03-30T00:41:53.418Z,101952.59
2019-03-30T00:44:24.034Z,101947.48
2019-03-30T00:46:54.630Z,101944.27
2019-03-30T00:49:25.078Z,101945.96
2019-03-30T00:51:55.466Z,101943.33
2019-03-30T00:54:26.138Z,101942.68
2019-03-30T00:56:56.547Z,101942.23
2019-03-30T00:59:27.021Z,101940.79
2019-03-30T01:01:57.596Z,101941.00
2019-03-30T01:04:27.968Z,101937.89
2019-03-30T01:06:58.595Z,101934.41
2019-03-30T01:09:29.081Z,101936.27
2019-03-30T01:11:59.748Z,101933.26
2019-03-30T01:14:30.208Z,101928.75
2019-03-30T01:17:00.606Z,101927.52
2019-03-30T01:19:31.015Z,101930.88
2019-03-30T01:22:01.395Z,101926.08
2019-03-30T01:24:31.772Z,101923.82
2019-03-30T01:27:02.237Z,101921.02
2019-03-30T01:29:32.946Z,101923.27
2019-03-30T01:32:04.308Z,101916.64
2019-03-30T01:34:34.688Z,101911.36
2019-03-30T01:37:05.486Z,101913.45
2019-03-30T01:39:35.887Z,101909.97
2019-03-30T01:42:06.529Z,101911.58
2019-03-30T01:44:36.910Z,101905.83
2019-03-30T01:47:07.437Z,101908.52
2019-03-30T01:49:37.816Z,101903.88
2019-03-30T01:52:08.276Z,101906.13
2019-03-30T01:54:38.658Z,101908.77
2019-03-30T01:57:09.496Z,101906.52
2019-03-30T01:59:39.905Z,101900.31
2019-03-30T02:02:11.278Z,101892.48
2019-03-30T02:04:41.660Z,101899.29
2019-03-30T02:07:12.047Z,101888.83
2019-03-30T02:09:42.424Z,101885.68
2019-03-30T02:12:12.898Z,101884.16
2019-03-30T02:14:43.888Z,101878.62
2019-03-30T02:17:14.701Z,101881.67
2019-03-30T02:19:45.197Z,101882.99
2019-03-30T02:22:15.883Z,101878.19
2019-03-30T02:24:46.328Z,101869.44
2019-03-30T02:27:16.903Z,101878.95
2019-03-30T02:29:47.354Z,101876.77
2019-03-30T02:32:17.839Z,101873.54
2019-03-30T02:34:48.243Z,101874.94
2019-03-30T02:37:18.622Z,101876.89
2019-03-30T02:39:49.007Z,101869.84
2019-03-30T02:42:19.977Z,101868.66
2019-03-30T02:44:50.511Z,101875.16
2019-03-30T02:47:20.898Z,101878.42
2019-03-30T02:49:51.307Z,101875.95
2019-03-30T02:52:22.211Z,101872.56
2019-03-30T02:54:52.624Z,101871.63
2019-03-30T02:57:23.114Z,101871.23
2019-03-30T02:59:54.120Z,101871.79
2019-03-30T03:02:24.563Z,101866.80
2019-03-30T03:04:55.027Z,101872.70
2019-03-30T03:07:25.721Z,101865.35
2019-03-30T03:09:56.551Z,101866.20
2019-03-30T03:12:26.937Z,101865.19
2019-03-30T03:14:57.672Z,101867.05
2019-03-30T03:17:28.182Z,101858.69
2019-03-30T03:19:58.972Z,101855.75
2019-03-30T03:22:29.543Z,101858.77
2019-03-30T03:24:59.999Z,101858.69
2019-03-30T03:27:30.469Z,101847.22
2019-03-30T03:30:01.730Z,101846.51
2019-03-30T03:32:32.194Z,101849.23
2019-03-30T03:35:02.854Z,101849.70
2019-03-30T03:37:44.861Z,101849.23
2019-03-30T03:40:06.644Z,101847.63
2019-03-30T03:42:37.176Z,101847.55
2019-03-30T03:45:08.787Z,101847.92
2019-03-30T03:47:39.342Z,101843.59
2019-03-30T03:50:11.444Z,101841.72
2019-03-30T03:52:42.132Z,101840.84
2019-03-30T03:55:12.589Z,101844.80
2019-03-30T03:57:45.043Z,101834.47
2019-03-30T04:00:15.711Z,101835.53
2019-03-30T04:02:47.088Z,101834.39
2019-03-30T04:05:19.139Z,101835.07
2019-03-30T04:07:52.350Z,101833.20
2019-03-30T04:10:25.905Z,101834.05
2019-03-30T04:12:58.762Z,101827.38
2019-03-30T04:15:29.228Z,101824.95
2019-03-30T04:17:59.815Z,101822.20
2019-03-30T04:20:30.116Z,101822.20
2019-03-30T04:23:00.583Z,101818.71
2019-03-30T04:25:31.663Z,101822.31
2019-03-30T04:28:02.125Z,101823.25
2019-03-30T04:30:32.519Z,101814.59
2019-03-30T04:33:03.251Z,101820.41
2019-03-30T04:35:33.632Z,101815.31
2019-03-30T04:38:04.119Z,101816.08
2019-03-30T04:40:35.347Z,101814.59
2019-03-30T04:43:05.750Z,101817.39
2019-03-30T04:45:36.119Z,101806.30
2019-03-30T04:48:06.840Z,101804.42
2019-03-30T04:50:37.214Z,101805.27
2019-03-30T04:53:07.682Z,101802.87
2019-03-30T04:55:38.419Z,101801.93
2019-03-30T04:58:09.714Z,101802.48
2019-03-30T05:00:40.508Z,101801.38
2019-03-30T05:03:11.234Z,101801.08
2019-03-30T05:05:43.213Z,101795.55
2019-03-30T05:08:13.861Z,101797.45
2019-03-30T05:10:44.662Z,101796.44
2019-03-30T05:13:15.419Z,101799.33
2019-03-30T05:15:45.798Z,101791.89
2019-03-30T05:18:16.273Z,101799.33
2019-03-30T05:20:46.654Z,101792.36
2019-03-30T05:23:17.124Z,101795.12
2019-03-30T05:25:47.587Z,101793.13
2019-03-30T05:28:17.993Z,101785.77
2019-03-30T05:30:48.378Z,101788.41
2019-03-30T05:33:18.866Z,101785.57
2019-03-30T05:35:49.540Z,101783.02
2019-03-30T05:38:20.010Z,101788.50
2019-03-30T05:40:50.404Z,101779.83
2019-03-30T05:43:20.862Z,101775.41
2019-03-30T05:45:51.575Z,101775.88
2019-03-30T05:48:22.288Z,101775.80
2019-03-30T05:50:52.748Z,101773.16
2019-03-30T05:53:23.126Z,101772.69
2019-03-30T05:55:53.767Z,101766.58
2019-03-30T05:58:27.895Z,101774.39
2019-03-30T06:00:58.378Z,101771.49
2019-03-30T06:03:29.214Z,101781.47
2019-03-30T06:05:59.592Z,101780.42
2019-03-30T06:11:20.391Z,101778.43
2019-03-30T06:13:50.880Z,101778.22
2019-03-30T06:16:21.281Z,101771.34
2019-03-30T06:18:51.794Z,101768.91
2019-03-30T06:21:24.941Z,101771.47
2019-03-30T06:23:56.544Z,101778.43
2019-03-30T06:26:27.354Z,101769.21
2019-03-30T06:28:57.747Z,101775.03
2019-03-30T06:31:28.519Z,101779.78
2019-03-30T06:33:59.223Z,101781.00
2019-03-30T06:36:30.110Z,101775.63
2019-03-30T06:39:00.418Z,101775.56
2019-03-30T06:41:32.275Z,101779.80
2019-03-30T06:44:02.746Z,101780.22
2019-03-30T06:46:33.128Z,101777.57
2019-03-30T06:49:03.875Z,101778.43
2019-03-30T06:51:35.921Z,101782.92
2019-03-30T06:54:06.317Z,101782.18
2019-03-30T06:56:36.977Z,101782.84
2019-03-30T06:59:07.720Z,101783.41
2019-03-30T07:01:38.656Z,101777.83
2019-03-30T07:04:11.287Z,101776.98
2019-03-30T07:06:41.841Z,101781.59
2019-03-30T07:09:12.347Z,101772.90
2019-03-30T07:11:44.735Z,101778.84
2019-03-30T07:14:15.227Z,101782.51
2019-03-30T07:16:47.763Z,101775.22
2019-03-30T07:19:24.336Z,101776.25
2019-03-30T07:21:55.061Z,101767.30
2019-03-30T07:24:25.553Z,101774.92
2019-03-30T07:26:55.939Z,101775.08
2019-03-30T07:29:26.432Z,101776.20
2019-03-30T07:31:56.831Z,101777.70
2019-03-30T07:34:27.236Z,101775.72
2019-03-30T07:36:57.775Z,101774.08
2019-03-30T07:39:28.628Z,101771.05
2019-03-30T07:41:59.020Z,101772.45
2019-03-30T07:44:29.827Z,101765.62
2019-03-30T07:47:00.295Z,101771.83
2019-03-30T07:49:30.706Z,101772.76
2019-03-30T07:52:01.313Z,101771.75
2019-03-30T07:54:32.100Z,101766.92
2019-03-30T07:57:06.270Z,101763.74
2019-03-30T07:59:34.714Z,101766.73
2019-03-30T08:02:05.184Z,101770.46
2019-03-30T08:04:36.004Z,101767.55
2019-03-30T08:07:06.852Z,101770.52
2019-03-30T08:09:37.402Z,101767.81
2019-03-30T08:12:07.765Z,101760.20
2019-03-30T08:14:38.423Z,101759.89
2019-03-30T08:17:09.193Z,101759.55
2019-03-30T08:19:40.393Z,101757.33
2019-03-30T08:22:11.319Z,101757.59
2019-03-30T08:24:41.636Z,101756.64
2019-03-30T08:27:12.225Z,101764.95
2019-03-30T08:29:42.630Z,101761.32
2019-03-30T08:32:13.124Z,101752.80
2019-03-30T08:34:43.870Z,101751.63
2019-03-30T08:37:14.382Z,101747.45
2019-03-30T08:39:44.878Z,101748.09
2019-03-30T08:42:15.351Z,101739.91
2019-03-30T08:44:46.642Z,101745.83
2019-03-30T08:47:17.885Z,101742.12
2019-03-30T08:49:49.086Z,101749.73
2019-03-30T08:52:19.807Z,101752.51
2019-03-30T08:54:50.579Z,101747.37
2019-03-30T08:57:21.159Z,101752.70
2019-03-30T08:59:51.828Z,101742.61
2019-03-30T09:02:22.208Z,101748.42
2019-03-30T09:04:53.002Z,101755.67
2019-03-30T09:07:23.963Z,101750.53
2019-03-30T09:09:54.356Z,101749.46
2019-03-30T09:12:24.821Z,101746.08
2019-03-30T09:14:55.286Z,101747.19
2019-03-30T09:17:25.761Z,101742.63
2019-03-30T09:19:56.165Z,101739.17
2019-03-30T09:22:27.088Z,101738.95
2019-03-30T09:24:58.146Z,101745.23
2019-03-30T09:27:28.608Z,101736.95
2019-03-30T09:29:59.089Z,101739.13
2019-03-30T09:32:29.832Z,101727.45
2019-03-30T09:35:00.359Z,101726.89
2019-03-30T09:37:31.090Z,101722.32
2019-03-30T09:40:01.572Z,101716.56
2019-03-30T09:42:31.970Z,101718.24
2019-03-30T09:45:02.367Z,101713.58
2019-03-30T09:47:33.062Z,101711.53
2019-03-30T09:50:03.594Z,101705.53
2019-03-30T09:52:34.368Z,101704.78
2019-03-30T09:55:05.482Z,101707.45
2019-03-30T09:57:35.860Z,101708.19
2019-03-30T10:00:08.628Z,101697.92
2019-03-30T10:02:39.503Z,101700.67
2019-03-30T10:05:10.547Z,101696.46
2019-03-30T10:07:41.335Z,101698.84
2019-03-30T10:10:11.911Z,101694.05
2019-03-30T10:12:42.393Z,101695.23
2019-03-30T10:15:13.287Z,101694.82
2019-03-30T10:17:43.908Z,101694.48
2019-03-30T10:20:14.301Z,101694.77
2019-03-30T10:22:44.826Z,101688.27
2019-03-30T10:25:15.241Z,101688.91
2019-03-30T10:27:45.755Z,101687.74
2019-03-30T10:30:16.587Z,101680.84
2019-03-30T10:32:47.102Z,101690.02
2019-03-30T10:35:17.497Z,101684.33
2019-03-30T10:37:47.913Z,101681.41
2019-03-30T10:40:20.857Z,101680.67
2019-03-30T10:42:50.577Z,101672.06
2019-03-30T10:45:21.958Z,101689.45
2019-03-30T10:47:52.438Z,101679.01
2019-03-30T10:50:23.535Z,101673.53
2019-03-30T10:52:53.948Z,101678.23
2019-03-30T10:55:24.370Z,101679.98
2019-03-30T10:57:54.763Z,101669.11
2019-03-30T11:00:53.165Z,101686.98
2019-03-30T11:03:23.641Z,101671.75
2019-03-30T11:05:54.038Z,101666.66
2019-03-30T11:08:24.524Z,101664.84
2019-03-30T11:10:55.012Z,101663.64
2019-03-30T11:13:25.467Z,101664.26
2019-03-30T11:15:55.982Z,101656.20
2019-03-30T11:18:26.460Z,101657.45
2019-03-30T11:20:57.043Z,101662.27
2019-03-30T11:23:27.992Z,101661.41
2019-03-30T11:25:58.603Z,101651.02
2019-03-30T11:28:29.378Z,101643.47
2019-03-30T11:30:59.900Z,101652.60
2019-03-30T11:33:30.310Z,101643.97
2019-03-30T11:36:00.741Z,101651.55
2019-03-30T11:38:31.124Z,101651.30
2019-03-30T11:41:01.529Z,101641.47
2019-03-30T11:43:32.004Z,101632.46
2019-03-30T11:46:02.502Z,101639.73
2019-03-30T11:48:32.916Z,101630.77
2019-03-30T11:51:03.473Z,101622.27
2019-03-30T11:53:34.373Z,101624.38
2019-03-30T11:56:05.962Z,101619.27
2019-03-30T11:58:37.061Z,101622.91
2019-03-30T12:01:07.910Z,101627.38
2019-03-30T12:03:38.571Z,101622.37
2019-03-30T12:06:09.140Z,101613.94
2019-03-30T12:08:40.194Z,101610.61
2019-03-30T12:11:10.671Z,101600.98
2019-03-30T12:13:41.472Z,101611.06
2019-03-30T12:16:12.411Z,101607.74
2019-03-30T12:18:43.009Z,101613.83
2019-03-30T12:21:13.766Z,101599.13
2019-03-30T12:23:44.595Z,101603.01
2019-03-30T12:26:15.148Z,101595.80
2019-03-30T12:28:46.115Z,101595.80
2019-03-30T12:31:16.661Z,101593.13
2019-03-30T12:33:47.218Z,101590.50
2019-03-30T12:36:17.900Z,101588.53
2019-03-30T12:38:48.432Z,101579.16
2019-03-30T12:41:18.922Z,101594.91
2019-03-30T12:43:50.392Z,101574.78
2019-03-30T12:46:20.967Z,101574.78
2019-03-30T12:48:51.460Z,101575.28
2019-03-30T12:51:21.899Z,101566.74
2019-03-30T12:53:52.985Z,101573.27
2019-03-30T12:56:23.848Z,101571.08
2019-03-30T12:58:54.573Z,101559.81
2019-03-30T13:01:25.345Z,101561.11
2019-03-30T13:03:55.827Z,101555.85
2019-03-30T13:06:26.441Z,101566.08
2019-03-30T13:08:57.021Z,101556.17
2019-03-30T13:11:27.725Z,101559.37
2019-03-30T13:13:58.167Z,101550.91
2019-03-30T13:16:28.650Z,101547.62
2019-03-30T13:18:59.156Z,101557.34
2019-03-30T13:21:32.363Z,101551.55
2019-03-30T13:24:01.929Z,101541.70
2019-03-30T13:26:32.738Z,101547.27
2019-03-30T13:29:03.322Z,101547.27
2019-03-30T13:31:33.827Z,101540.89
2019-03-30T13:34:04.526Z,101536.68
2019-03-30T13:36:42.063Z,101539.19
2019-03-30T13:39:12.612Z,101535.14
2019-03-30T13:41:43.052Z,101535.14
2019-03-30T13:44:13.562Z,101547.31
2019-03-30T13:46:44.080Z,101535.95
2019-03-30T13:49:14.490Z,101536.25
2019-03-30T13:51:46.098Z,101527.50
2019-03-30T13:54:17.554Z,101523.77
2019-03-30T13:56:48.051Z,101531.00
2019-03-30T13:59:18.845Z,101533.45
2019-03-30T14:01:49.316Z,101518.64
2019-03-30T14:04:19.711Z,101515.36
2019-03-30T14:06:51.195Z,101512.66
2019-03-30T14:09:22.128Z,101513.91
2019-03-30T14:11:52.788Z,101521.94
2019-03-30T14:14:23.358Z,101517.17
2019-03-30T14:16:54.205Z,101498.48
2019-03-30T14:19:24.904Z,101511.02
2019-03-30T14:21:55.318Z,101511.94
2019-03-30T14:24:26.062Z,101498.63
2019-03-30T14:26:56.550Z,101511.84
2019-03-30T14:29:27.026Z,101511.75
2019-03-30T14:31:57.479Z,101511.75
2019-03-30T14:34:28.200Z,101503.89
2019-03-30T14:36:58.662Z,101502.55
2019-03-30T14:39:29.185Z,101498.03
2019-03-30T14:41:59.709Z,101497.00
2019-03-30T14:44:30.247Z,101495.35
2019-03-30T14:47:00.738Z,101491.68
2019-03-30T14:49:31.310Z,101492.49
2019-03-30T14:52:02.398Z,101492.49
2019-03-30T14:54:32.812Z,101495.01
2019-03-30T14:57:03.391Z,101490.98
2019-03-30T14:59:33.870Z,101488.80
2019-03-30T15:02:04.364Z,101488.33
2019-03-30T15:04:35.144Z,101490.65
2019-03-30T15:07:05.729Z,101490.16
2019-03-30T15:09:36.395Z,101494.81
2019-03-30T15:12:07.077Z,101494.63
2019-03-30T15:14:38.180Z,101493.61
2019-03-30T15:17:08.711Z,101492.10
2019-03-30T15:19:39.116Z,101489.12
2019-03-30T15:22:09.633Z,101485.73
2019-03-30T15:24:41.147Z,101491.73
2019-03-30T15:27:11.671Z,101481.14
2019-03-30T15:29:45.418Z,101482.47
2019-03-30T15:32:14.398Z,101484.48
2019-03-30T15:34:45.953Z,101471.09
2019-03-30T15:37:16.999Z,101471.09
2019-03-30T15:39:47.509Z,101480.84
2019-03-30T15:42:18.022Z,101471.10
2019-03-30T15:44:48.506Z,101479.31
2019-03-30T15:47:19.003Z,101479.31
2019-03-30T15:49:49.399Z,101470.59
2019-03-30T15:52:20.033Z,101468.91
2019-03-30T15:54:50.448Z,101471.79
2019-03-30T15:57:21.360Z,101470.74
2019-03-30T15:59:51.865Z,101466.20
2019-03-30T16:02:22.999Z,101461.66
2019-03-30T16:04:53.526Z,101462.94
2019-03-30T16:07:23.917Z,101470.42
2019-03-30T16:09:54.413Z,101473.33
2019-03-30T16:12:24.835Z,101472.52
2019-03-30T16:14:55.585Z,101469.94
2019-03-30T16:17:26.414Z,101470.23
2019-03-30T16:19:56.951Z,101463.30
2019-03-30T16:22:27.433Z,101464.96
2019-03-30T16:24:57.946Z,101464.02
2019-03-30T16:27:29.507Z,101470.22
2019-03-30T16:30:00.331Z,101462.00
2019-03-30T16:32:30.825Z,101458.16
2019-03-30T16:35:01.313Z,101463.09
2019-03-30T16:37:32.112Z,101465.77
2019-03-30T16:40:02.611Z,101458.69
2019-03-30T16:42:33.527Z,101466.45
2019-03-30T16:45:04.385Z,101467.13
2019-03-30T16:47:35.222Z,101460.75
2019-03-30T16:50:09.655Z,101464.98
2019-03-30T16:52:41.200Z,101465.81
2019-03-30T16:55:11.885Z,101458.95
2019-03-30T16:57:44.101Z,101463.30
2019-03-30T17:00:16.019Z,101461.83
2019-03-30T17:02:46.830Z,101463.52
2019-03-30T17:05:17.382Z,101463.37
2019-03-30T17:07:47.799Z,101465.01
2019-03-30T17:10:18.327Z,101465.01
2019-03-30T17:12:48.822Z,101465.80
2019-03-30T17:15:19.288Z,101452.11
2019-03-30T17:17:49.823Z,101452.11
2019-03-30T17:20:20.267Z,101458.41
2019-03-30T17:22:50.792Z,101456.18
2019-03-30T17:25:21.498Z,101457.81
2019-03-30T17:27:58.610Z,101454.92
2019-03-30T17:30:25.189Z,101455.02
2019-03-30T17:32:55.613Z,101448.95
2019-03-30T17:35:26.143Z,101447.39
2019-03-30T17:37:57.077Z,101447.39
2019-03-30T17:40:27.654Z,101456.52
2019-03-30T17:42:58.379Z,101452.17
2019-03-30T17:45:28.865Z,101455.72
2019-03-30T17:48:00.278Z,101459.57
2019-03-30T17:50:30.762Z,101456.53
2019-03-30T17:53:01.316Z,101462.70
2019-03-30T17:55:33.888Z,101458.53
2019-03-30T17:58:12.742Z,101461.55
2019-03-30T18:00:36.526Z,101462.53
2019-03-30T18:03:07.267Z,101469.88
2019-03-30T18:05:37.750Z,101463.41
2019-03-30T18:08:08.160Z,101468.22
2019-03-30T18:10:38.735Z,101461.28
2019-03-30T18:13:09.260Z,101465.00
2019-03-30T18:15:40.080Z,101475.66
2019-03-30T18:18:10.620Z,101470.14
2019-03-30T18:20:41.039Z,101463.42
2019-03-30T18:23:11.436Z,101467.76
2019-03-30T18:25:41.901Z,101475.13
2019-03-30T18:28:26.208Z,101477.01
2019-03-30T18:30:44.478Z,101473.52
2019-03-30T18:33:16.098Z,101477.50
2019-03-30T18:35:47.285Z,101475.08
2019-03-30T18:38:17.871Z,101481.67
2019-03-30T18:40:48.564Z,101483.00
2019-03-30T18:43:18.963Z,101487.04
2019-03-30T18:45:49.726Z,101488.36
2019-03-30T18:48:20.225Z,101490.58
2019-03-30T18:50:50.686Z,101493.31
2019-03-30T18:53:21.182Z,101495.52
2019-03-30T18:55:51.577Z,101504.58
2019-03-30T18:58:22.370Z,101499.97
2019-03-30T19:00:52.765Z,101508.20
2019-03-30T19:03:23.236Z,101507.84
2019-03-30T19:05:53.620Z,101504.37
2019-03-30T19:08:24.035Z,101506.77
2019-03-30T19:10:54.412Z,101507.52
2019-03-30T19:13:25.924Z,101508.29
2019-03-30T19:15:56.317Z,101504.92
2019-03-30T19:18:27.074Z,101506.73
2019-03-30T19:20:57.529Z,101506.41
2019-03-30T19:23:28.092Z,101508.88
2019-03-30T19:25:58.553Z,101516.03
2019-03-30T19:28:29.536Z,101515.73
2019-03-30T19:31:00.001Z,101511.02
2019-03-30T19:33:30.410Z,101509.36
2019-03-30T19:36:01.129Z,101513.83
2019-03-30T19:38:31.856Z,101514.52
2019-03-30T19:41:02.186Z,101512.94
2019-03-30T19:43:32.630Z,101508.19
2019-03-30T19:46:03.092Z,101510.11
2019-03-30T19:48:36.799Z,101511.44
2019-03-30T19:51:05.779Z,101512.61
2019-03-30T19:53:36.566Z,101517.22
2019-03-30T19:56:07.026Z,101518.36
2019-03-30T19:58:37.439Z,101524.05
2019-03-30T20:01:08.261Z,101512.85
2019-03-30T20:03:38.671Z,101510.85
2019-03-30T20:06:09.130Z,101515.84
2019-03-30T20:08:39.453Z,101514.63
2019-03-30T20:11:09.849Z,101513.39
2019-03-30T20:13:40.570Z,101507.23
2019-03-30T20:16:11.465Z,101507.10
2019-03-30T20:18:42.168Z,101508.51
2019-03-30T20:21:12.561Z,101512.00
2019-03-30T20:23:43.524Z,101517.05
2019-03-30T20:26:14.391Z,101516.81
2019-03-30T20:28:45.071Z,101514.48
2019-03-30T20:31:15.828Z,101517.98
2019-03-30T20:33:46.242Z,101518.14
2019-03-30T20:36:16.566Z,101521.16
2019-03-30T20:38:46.945Z,101516.94
2019-03-30T20:41:17.312Z,101515.86
2019-03-30T20:43:47.809Z,101518.16
2019-03-30T20:46:18.202Z,101513.45
2019-03-30T20:48:50.041Z,101514.58
2019-03-30T20:51:20.538Z,101514.83
2019-03-30T20:53:51.005Z,101519.89
2019-03-30T20:56:21.431Z,101517.53
2019-03-30T20:58:52.366Z,101520.10
2019-03-30T21:01:22.932Z,101523.11
2019-03-30T21:03:53.349Z,101521.55
2019-03-30T21:06:23.844Z,101525.28
2019-03-30T21:08:54.362Z,101522.99
2019-03-30T21:11:24.863Z,101526.73
2019-03-30T21:13:56.854Z,101527.09
2019-03-30T21:16:27.416Z,101525.65
2019-03-30T21:18:57.927Z,101530.62
2019-03-30T21:21:28.393Z,101528.95
2019-03-30T21:23:58.793Z,101524.86
2019-03-30T21:26:29.179Z,101526.55
2019-03-30T21:28:59.678Z,101521.85
2019-03-30T21:31:30.001Z,101523.03
2019-03-30T21:34:01.003Z,101529.78
2019-03-30T21:36:31.835Z,101526.77
2019-03-30T21:39:02.531Z,101527.02
2019-03-30T21:41:35.152Z,101524.96
2019-03-30T21:44:05.969Z,101520.53
2019-03-30T21:46:36.364Z,101529.32
2019-03-30T21:49:07.161Z,101527.13
2019-03-30T21:51:37.633Z,101526.66
2019-03-30T21:54:08.111Z,101525.22
2019-03-30T21:56:38.594Z,101526.66
2019-03-30T21:59:09.057Z,101532.91
2019-03-30T22:01:39.989Z,101530.38
2019-03-30T22:04:10.718Z,101530.38
2019-03-30T22:06:41.421Z,101531.70
2019-03-30T22:09:12.299Z,101534.91
2019-03-30T22:11:42.878Z,101529.84
2019-03-30T22:14:13.335Z,101534.59
2019-03-30T22:16:43.739Z,101528.42
2019-03-30T22:19:14.140Z,101532.76
2019-03-30T22:21:44.465Z,101545.87
2019-03-30T22:24:15.256Z,101553.38
2019-03-30T22:26:45.660Z,101552.41
2019-03-30T22:29:16.165Z,101555.56
2019-03-30T22:31:46.794Z,101554.13
2019-03-30T22:34:17.295Z,101560.27
2019-03-30T22:36:47.688Z,101562.80
2019-03-30T22:39:18.169Z,101561.84
2019-03-30T22:41:48.670Z,101560.05
2019-03-30T22:44:19.070Z,101557.88
2019-03-30T22:46:49.389Z,101548.83
2019-03-30T22:49:19.972Z,101542.71
2019-03-30T22:51:50.361Z,101545.00
2019-03-30T22:54:21.232Z,101548.70
2019-03-30T22:56:51.629Z,101550.81
2019-03-30T22:59:22.026Z,101547.98
2019-03-30T23:01:52.495Z,101552.17
2019-03-30T23:04:22.891Z,101555.41
2019-03-30T23:06:53.349Z,101551.22
2019-03-30T23:09:23.787Z,101554.48
2019-03-30T23:11:54.320Z,101552.58
2019-03-30T23:14:24.879Z,101550.66
2019-03-30T23:16:55.386Z,101545.37
2019-03-30T23:19:26.106Z,101547.91
2019-03-30T23:21:56.586Z,101547.66
2019-03-30T23:24:27.344Z,101538.98
2019-03-30T23:26:57.718Z,101547.03
2019-03-30T23:29:28.465Z,101546.77
2019-03-30T23:31:59.326Z,101545.08
2019-03-30T23:34:30.063Z,101540.05
2019-03-30T23:37:00.485Z,101540.16
2019-03-30T23:39:31.116Z,101537.63
2019-03-30T23:42:01.664Z,101541.59
2019-03-30T23:44:32.065Z,101547.09
2019-03-30T23:47:02.474Z,101545.78
2019-03-30T23:49:33.004Z,101544.82
2019-03-30T23:52:03.522Z,101543.23
2019-03-30T23:54:33.906Z,101540.34
2019-03-30T23:57:04.312Z,101536.59
2019-03-30T23:59:34.765Z,101541.18
